sensor_id;sensor_type;location;lat;lon;timestamp;temperature;humidity
20070;DHT22;10195;50.868;4.382;2023-05-07T00:01:49;17.90;99.90
20070;DHT22;10195;50.868;4.382;2023-05-07T00:04:14;17.80;99.90
20070;DHT22;10195;50.868;4.382;2023-05-07T00:06:40;17.80;99.90
20070;DHT22;10195;50.868;4.382;2023-05-07T00:09:06;17.80;99.90
20070;DHT22;10195;50.868;4.382;2023-05-07T00:11:32;17.70;99.90
20070;DHT22;10195;50.868;4.382;2023-05-07T00:13:58;17.70;99.90
20070;DHT22;10195;50.868;4.382;2023-05-07T00:16:24;17.70;99.90
20070;DHT22;10195;50.868;4.382;2023-05-07T00:18:50;17.70;99.90
20070;DHT22;10195;50.868;4.382;2023-05-07T00:21:16;17.70;99.90
20070;DHT22;10195;50.868;4.382;2023-05-07T00:23:42;17.60;99.90
20070;DHT22;10195;50.868;4.382;2023-05-07T00:26:07;17.50;99.90
20070;DHT22;10195;50.868;4.382;2023-05-07T00:28:33;17.40;99.90
20070;DHT22;10195;50.868;4.382;2023-05-07T00:30:58;17.20;99.90
20070;DHT22;10195;50.868;4.382;2023-05-07T00:33:24;17.10;99.90
20070;DHT22;10195;50.868;4.382;2023-05-07T00:35:52;17.20;99.90
20070;DHT22;10195;50.868;4.382;2023-05-07T00:38:19;17.20;99.90
20070;DHT22;10195;50.868;4.382;2023-05-07T00:40:45;17.30;99.90
20070;DHT22;10195;50.868;4.382;2023-05-07T00:43:11;17.30;99.90
20070;DHT22;10195;50.868;4.382;2023-05-07T00:45:38;17.40;99.90
20070;DHT22;10195;50.868;4.382;2023-05-07T00:48:04;17.30;99.90
20070;DHT22;10195;50.868;4.382;2023-05-07T00:50:30;17.40;99.90
20070;DHT22;10195;50.868;4.382;2023-05-07T00:52:56;17.40;99.90
20070;DHT22;10195;50.868;4.382;2023-05-07T00:55:23;17.60;99.90
20070;DHT22;10195;50.868;4.382;2023-05-07T00:57:50;17.70;99.90
20070;DHT22;10195;50.868;4.382;2023-05-07T01:00:16;17.70;99.90
20070;DHT22;10195;50.868;4.382;2023-05-07T01:02:43;17.70;99.90
20070;DHT22;10195;50.868;4.382;2023-05-07T01:05:11;17.70;99.90
20070;DHT22;10195;50.868;4.382;2023-05-07T01:07:39;17.70;99.90
20070;DHT22;10195;50.868;4.382;2023-05-07T01:10:06;17.70;99.90
20070;DHT22;10195;50.868;4.382;2023-05-07T01:12:32;17.70;99.90
20070;DHT22;10195;50.868;4.382;2023-05-07T01:14:58;17.70;99.90
20070;DHT22;10195;50.868;4.382;2023-05-07T01:17:24;17.60;99.90
20070;DHT22;10195;50.868;4.382;2023-05-07T01:19:50;17.70;99.90
20070;DHT22;10195;50.868;4.382;2023-05-07T01:22:30;17.70;99.90
20070;DHT22;10195;50.868;4.382;2023-05-07T01:24:58;17.70;99.90
20070;DHT22;10195;50.868;4.382;2023-05-07T01:27:25;17.60;99.90
20070;DHT22;10195;50.868;4.382;2023-05-07T01:29:51;17.60;99.90
20070;DHT22;10195;50.868;4.382;2023-05-07T01:32:21;17.60;99.90
20070;DHT22;10195;50.868;4.382;2023-05-07T01:34:48;17.60;99.90
20070;DHT22;10195;50.868;4.382;2023-05-07T01:37:14;17.60;99.90
20070;DHT22;10195;50.868;4.382;2023-05-07T01:39:43;17.70;99.90
20070;DHT22;10195;50.868;4.382;2023-05-07T01:42:09;17.70;99.90
20070;DHT22;10195;50.868;4.382;2023-05-07T01:44:34;17.60;99.90
20070;DHT22;10195;50.868;4.382;2023-05-07T01:47:02;17.50;99.90
20070;DHT22;10195;50.868;4.382;2023-05-07T01:49:28;17.30;99.90
20070;DHT22;10195;50.868;4.382;2023-05-07T01:51:54;17.30;99.90
20070;DHT22;10195;50.868;4.382;2023-05-07T01:54:25;17.20;99.90
20070;DHT22;10195;50.868;4.382;2023-05-07T01:56:53;17.20;99.90
20070;DHT22;10195;50.868;4.382;2023-05-07T01:59:18;17.20;99.90
20070;DHT22;10195;50.868;4.382;2023-05-07T02:01:44;17.30;99.90
20070;DHT22;10195;50.868;4.382;2023-05-07T02:04:10;17.30;99.90
20070;DHT22;10195;50.868;4.382;2023-05-07T02:06:35;17.40;99.90
20070;DHT22;10195;50.868;4.382;2023-05-07T02:09:01;17.30;99.90
20070;DHT22;10195;50.868;4.382;2023-05-07T02:11:27;17.10;99.90
20070;DHT22;10195;50.868;4.382;2023-05-07T02:13:52;17.20;99.90
20070;DHT22;10195;50.868;4.382;2023-05-07T02:16:18;17.20;99.90
20070;DHT22;10195;50.868;4.382;2023-05-07T02:18:45;17.20;99.90
20070;DHT22;10195;50.868;4.382;2023-05-07T02:21:10;17.20;99.90
20070;DHT22;10195;50.868;4.382;2023-05-07T02:23:36;17.10;99.90
20070;DHT22;10195;50.868;4.382;2023-05-07T02:26:03;17.10;99.90
20070;DHT22;10195;50.868;4.382;2023-05-07T02:28:29;17.00;99.90
20070;DHT22;10195;50.868;4.382;2023-05-07T02:30:54;17.10;99.90
20070;DHT22;10195;50.868;4.382;2023-05-07T02:33:20;17.10;99.90
20070;DHT22;10195;50.868;4.382;2023-05-07T02:35:46;17.10;99.90
20070;DHT22;10195;50.868;4.382;2023-05-07T02:38:12;17.10;99.90
20070;DHT22;10195;50.868;4.382;2023-05-07T02:40:37;17.00;99.90
20070;DHT22;10195;50.868;4.382;2023-05-07T02:43:07;17.00;99.90
20070;DHT22;10195;50.868;4.382;2023-05-07T02:45:33;17.00;99.90
20070;DHT22;10195;50.868;4.382;2023-05-07T02:47:58;16.90;99.90
20070;DHT22;10195;50.868;4.382;2023-05-07T02:50:24;16.90;99.90
20070;DHT22;10195;50.868;4.382;2023-05-07T02:52:50;16.80;99.90
20070;DHT22;10195;50.868;4.382;2023-05-07T02:55:16;16.80;99.90
20070;DHT22;10195;50.868;4.382;2023-05-07T02:57:42;16.80;99.90
20070;DHT22;10195;50.868;4.382;2023-05-07T03:00:14;16.80;99.90
20070;DHT22;10195;50.868;4.382;2023-05-07T03:02:41;16.80;99.90
20070;DHT22;10195;50.868;4.382;2023-05-07T03:05:06;16.70;99.90
20070;DHT22;10195;50.868;4.382;2023-05-07T03:07:32;16.60;99.90
20070;DHT22;10195;50.868;4.382;2023-05-07T03:09:58;16.70;99.90
20070;DHT22;10195;50.868;4.382;2023-05-07T03:12:23;16.80;99.90
20070;DHT22;10195;50.868;4.382;2023-05-07T03:14:49;16.80;99.90
20070;DHT22;10195;50.868;4.382;2023-05-07T03:17:15;16.90;99.90
20070;DHT22;10195;50.868;4.382;2023-05-07T03:19:41;16.90;99.90
20070;DHT22;10195;50.868;4.382;2023-05-07T03:22:07;16.80;99.90
20070;DHT22;10195;50.868;4.382;2023-05-07T03:24:32;16.90;99.90
20070;DHT22;10195;50.868;4.382;2023-05-07T03:26:58;17.00;99.90
20070;DHT22;10195;50.868;4.382;2023-05-07T03:29:24;17.10;99.90
20070;DHT22;10195;50.868;4.382;2023-05-07T03:31:50;17.10;99.90
20070;DHT22;10195;50.868;4.382;2023-05-07T03:34:15;17.10;99.90
20070;DHT22;10195;50.868;4.382;2023-05-07T03:36:42;17.00;99.90
20070;DHT22;10195;50.868;4.382;2023-05-07T03:39:08;16.70;99.90
20070;DHT22;10195;50.868;4.382;2023-05-07T03:41:33;16.60;99.90
20070;DHT22;10195;50.868;4.382;2023-05-07T03:43:59;16.70;99.90
20070;DHT22;10195;50.868;4.382;2023-05-07T03:46:25;16.90;99.90
20070;DHT22;10195;50.868;4.382;2023-05-07T03:48:53;17.00;99.90
20070;DHT22;10195;50.868;4.382;2023-05-07T03:51:19;17.10;99.90
20070;DHT22;10195;50.868;4.382;2023-05-07T03:53:44;17.20;99.90
20070;DHT22;10195;50.868;4.382;2023-05-07T03:56:10;17.20;99.90
20070;DHT22;10195;50.868;4.382;2023-05-07T03:58:35;17.20;99.90
20070;DHT22;10195;50.868;4.382;2023-05-07T04:01:01;17.20;99.90
20070;DHT22;10195;50.868;4.382;2023-05-07T04:03:27;17.30;99.90
20070;DHT22;10195;50.868;4.382;2023-05-07T04:05:53;17.20;99.90
20070;DHT22;10195;50.868;4.382;2023-05-07T04:08:18;17.10;99.90
20070;DHT22;10195;50.868;4.382;2023-05-07T04:10:44;17.00;99.90
20070;DHT22;10195;50.868;4.382;2023-05-07T04:13:09;17.10;99.90
20070;DHT22;10195;50.868;4.382;2023-05-07T04:15:36;17.10;99.90
20070;DHT22;10195;50.868;4.382;2023-05-07T04:18:02;17.10;99.90
20070;DHT22;10195;50.868;4.382;2023-05-07T04:20:27;17.10;99.90
20070;DHT22;10195;50.868;4.382;2023-05-07T04:22:53;17.20;99.90
20070;DHT22;10195;50.868;4.382;2023-05-07T04:25:18;17.30;99.90
20070;DHT22;10195;50.868;4.382;2023-05-07T04:27:44;17.30;99.90
20070;DHT22;10195;50.868;4.382;2023-05-07T04:30:10;17.20;99.90
20070;DHT22;10195;50.868;4.382;2023-05-07T04:32:36;17.20;99.90
20070;DHT22;10195;50.868;4.382;2023-05-07T04:35:03;17.20;99.90
20070;DHT22;10195;50.868;4.382;2023-05-07T04:37:28;17.20;99.90
20070;DHT22;10195;50.868;4.382;2023-05-07T04:39:54;17.30;99.90
20070;DHT22;10195;50.868;4.382;2023-05-07T04:42:20;17.30;99.90
20070;DHT22;10195;50.868;4.382;2023-05-07T04:44:45;17.40;99.90
20070;DHT22;10195;50.868;4.382;2023-05-07T04:47:12;17.40;99.90
20070;DHT22;10195;50.868;4.382;2023-05-07T04:49:40;17.50;99.90
20070;DHT22;10195;50.868;4.382;2023-05-07T04:52:06;17.50;99.90
20070;DHT22;10195;50.868;4.382;2023-05-07T04:54:32;17.60;99.90
20070;DHT22;10195;50.868;4.382;2023-05-07T04:56:57;17.60;99.90
20070;DHT22;10195;50.868;4.382;2023-05-07T04:59:23;17.60;99.90
20070;DHT22;10195;50.868;4.382;2023-05-07T05:01:49;17.60;99.90
20070;DHT22;10195;50.868;4.382;2023-05-07T05:04:14;17.60;99.90
20070;DHT22;10195;50.868;4.382;2023-05-07T05:06:40;17.60;99.90
20070;DHT22;10195;50.868;4.382;2023-05-07T05:09:06;17.70;99.90
20070;DHT22;10195;50.868;4.382;2023-05-07T05:11:32;17.80;99.90
20070;DHT22;10195;50.868;4.382;2023-05-07T05:13:59;17.90;99.90
20070;DHT22;10195;50.868;4.382;2023-05-07T05:16:25;18.00;99.90
20070;DHT22;10195;50.868;4.382;2023-05-07T05:18:51;18.00;99.90
20070;DHT22;10195;50.868;4.382;2023-05-07T05:21:20;18.10;99.90
20070;DHT22;10195;50.868;4.382;2023-05-07T05:23:46;18.20;99.90
20070;DHT22;10195;50.868;4.382;2023-05-07T05:26:12;18.40;99.90
20070;DHT22;10195;50.868;4.382;2023-05-07T05:28:38;18.50;99.90
20070;DHT22;10195;50.868;4.382;2023-05-07T05:31:04;18.70;99.90
20070;DHT22;10195;50.868;4.382;2023-05-07T05:33:30;18.70;99.90
20070;DHT22;10195;50.868;4.382;2023-05-07T05:35:56;18.80;99.90
20070;DHT22;10195;50.868;4.382;2023-05-07T05:38:21;18.70;99.90
20070;DHT22;10195;50.868;4.382;2023-05-07T05:40:47;18.60;99.90
20070;DHT22;10195;50.868;4.382;2023-05-07T05:43:14;18.60;99.90
20070;DHT22;10195;50.868;4.382;2023-05-07T05:45:39;18.50;99.90
20070;DHT22;10195;50.868;4.382;2023-05-07T05:48:05;18.60;99.90
20070;DHT22;10195;50.868;4.382;2023-05-07T05:50:31;18.60;99.90
20070;DHT22;10195;50.868;4.382;2023-05-07T05:52:57;18.60;99.90
20070;DHT22;10195;50.868;4.382;2023-05-07T05:55:23;18.50;99.90
20070;DHT22;10195;50.868;4.382;2023-05-07T05:57:49;18.50;99.90
20070;DHT22;10195;50.868;4.382;2023-05-07T06:00:16;18.40;99.90
20070;DHT22;10195;50.868;4.382;2023-05-07T06:02:42;18.60;99.90
20070;DHT22;10195;50.868;4.382;2023-05-07T06:05:09;18.50;99.90
20070;DHT22;10195;50.868;4.382;2023-05-07T06:07:35;18.40;99.90
20070;DHT22;10195;50.868;4.382;2023-05-07T06:10:01;18.30;99.90
20070;DHT22;10195;50.868;4.382;2023-05-07T06:12:27;18.20;99.90
20070;DHT22;10195;50.868;4.382;2023-05-07T06:14:52;17.90;99.90
20070;DHT22;10195;50.868;4.382;2023-05-07T06:17:18;17.90;99.90
20070;DHT22;10195;50.868;4.382;2023-05-07T06:19:44;17.80;99.90
20070;DHT22;10195;50.868;4.382;2023-05-07T06:22:09;17.70;99.90
20070;DHT22;10195;50.868;4.382;2023-05-07T06:24:35;17.80;99.90
20070;DHT22;10195;50.868;4.382;2023-05-07T06:27:00;17.80;99.90
20070;DHT22;10195;50.868;4.382;2023-05-07T06:29:26;17.60;99.90
20070;DHT22;10195;50.868;4.382;2023-05-07T06:31:55;17.60;99.90
20070;DHT22;10195;50.868;4.382;2023-05-07T06:34:21;17.60;99.90
20070;DHT22;10195;50.868;4.382;2023-05-07T06:36:46;17.70;99.90
20070;DHT22;10195;50.868;4.382;2023-05-07T06:39:12;17.60;99.90
20070;DHT22;10195;50.868;4.382;2023-05-07T06:41:37;17.80;99.90
20070;DHT22;10195;50.868;4.382;2023-05-07T06:44:04;18.00;99.90
20070;DHT22;10195;50.868;4.382;2023-05-07T06:46:30;18.10;99.90
20070;DHT22;10195;50.868;4.382;2023-05-07T06:48:56;18.30;99.90
20070;DHT22;10195;50.868;4.382;2023-05-07T06:51:22;18.30;99.90
20070;DHT22;10195;50.868;4.382;2023-05-07T06:53:48;18.50;99.90
20070;DHT22;10195;50.868;4.382;2023-05-07T06:56:13;18.60;99.90
20070;DHT22;10195;50.868;4.382;2023-05-07T06:58:39;18.50;99.90
20070;DHT22;10195;50.868;4.382;2023-05-07T07:01:05;18.50;99.90
20070;DHT22;10195;50.868;4.382;2023-05-07T07:03:31;18.50;99.90
20070;DHT22;10195;50.868;4.382;2023-05-07T07:05:56;18.60;99.90
20070;DHT22;10195;50.868;4.382;2023-05-07T07:08:22;18.70;99.90
20070;DHT22;10195;50.868;4.382;2023-05-07T07:10:48;18.50;99.90
20070;DHT22;10195;50.868;4.382;2023-05-07T07:13:14;18.50;99.90
20070;DHT22;10195;50.868;4.382;2023-05-07T07:15:39;18.50;99.90
20070;DHT22;10195;50.868;4.382;2023-05-07T07:18:06;18.30;99.90
20070;DHT22;10195;50.868;4.382;2023-05-07T07:20:32;18.30;99.90
20070;DHT22;10195;50.868;4.382;2023-05-07T07:22:57;18.20;99.90
20070;DHT22;10195;50.868;4.382;2023-05-07T07:25:23;17.90;99.90
20070;DHT22;10195;50.868;4.382;2023-05-07T07:27:49;17.60;99.90
20070;DHT22;10195;50.868;4.382;2023-05-07T07:30:15;17.50;99.90
20070;DHT22;10195;50.868;4.382;2023-05-07T07:32:41;17.60;99.90
20070;DHT22;10195;50.868;4.382;2023-05-07T07:35:07;17.80;99.90
20070;DHT22;10195;50.868;4.382;2023-05-07T07:37:33;17.80;99.90
20070;DHT22;10195;50.868;4.382;2023-05-07T07:39:59;17.50;99.90
20070;DHT22;10195;50.868;4.382;2023-05-07T07:42:25;17.40;99.90
20070;DHT22;10195;50.868;4.382;2023-05-07T07:44:50;17.10;99.90
20070;DHT22;10195;50.868;4.382;2023-05-07T07:47:16;17.20;99.90
20070;DHT22;10195;50.868;4.382;2023-05-07T07:49:42;17.30;99.90
20070;DHT22;10195;50.868;4.382;2023-05-07T07:52:07;17.30;99.90
20070;DHT22;10195;50.868;4.382;2023-05-07T07:54:33;17.30;99.90
20070;DHT22;10195;50.868;4.382;2023-05-07T07:56:59;17.00;99.90
20070;DHT22;10195;50.868;4.382;2023-05-07T07:59:25;16.90;99.90
20070;DHT22;10195;50.868;4.382;2023-05-07T08:01:50;17.10;99.90
20070;DHT22;10195;50.868;4.382;2023-05-07T08:04:17;17.20;99.90
20070;DHT22;10195;50.868;4.382;2023-05-07T08:06:43;17.30;99.90
20070;DHT22;10195;50.868;4.382;2023-05-07T08:09:09;17.30;99.90
20070;DHT22;10195;50.868;4.382;2023-05-07T08:11:35;17.30;99.90
20070;DHT22;10195;50.868;4.382;2023-05-07T08:14:00;17.30;99.90
20070;DHT22;10195;50.868;4.382;2023-05-07T08:16:26;17.30;99.90
20070;DHT22;10195;50.868;4.382;2023-05-07T08:18:52;17.60;99.90
20070;DHT22;10195;50.868;4.382;2023-05-07T08:21:18;17.60;99.90
20070;DHT22;10195;50.868;4.382;2023-05-07T08:23:43;17.60;99.90
20070;DHT22;10195;50.868;4.382;2023-05-07T08:26:10;17.60;99.90
20070;DHT22;10195;50.868;4.382;2023-05-07T08:28:35;17.60;99.90
20070;DHT22;10195;50.868;4.382;2023-05-07T08:31:01;17.60;99.90
20070;DHT22;10195;50.868;4.382;2023-05-07T08:33:27;17.50;99.90
20070;DHT22;10195;50.868;4.382;2023-05-07T08:35:53;17.50;99.90
20070;DHT22;10195;50.868;4.382;2023-05-07T08:38:18;17.90;99.90
20070;DHT22;10195;50.868;4.382;2023-05-07T08:40:44;18.00;99.90
20070;DHT22;10195;50.868;4.382;2023-05-07T08:43:13;18.00;99.90
20070;DHT22;10195;50.868;4.382;2023-05-07T08:45:40;18.10;99.90
20070;DHT22;10195;50.868;4.382;2023-05-07T08:48:09;18.00;99.90
20070;DHT22;10195;50.868;4.382;2023-05-07T08:50:39;18.00;99.90
20070;DHT22;10195;50.868;4.382;2023-05-07T08:53:05;17.80;99.90
20070;DHT22;10195;50.868;4.382;2023-05-07T08:55:31;17.70;99.90
20070;DHT22;10195;50.868;4.382;2023-05-07T08:57:59;17.90;99.90
20070;DHT22;10195;50.868;4.382;2023-05-07T09:00:24;18.10;99.90
20070;DHT22;10195;50.868;4.382;2023-05-07T09:02:50;18.40;99.90
20070;DHT22;10195;50.868;4.382;2023-05-07T09:05:16;18.60;99.90
20070;DHT22;10195;50.868;4.382;2023-05-07T09:07:41;18.60;99.90
20070;DHT22;10195;50.868;4.382;2023-05-07T09:10:07;18.60;99.90
20070;DHT22;10195;50.868;4.382;2023-05-07T09:12:33;18.50;99.90
20070;DHT22;10195;50.868;4.382;2023-05-07T09:15:00;18.40;99.90
20070;DHT22;10195;50.868;4.382;2023-05-07T09:17:28;18.30;99.90
20070;DHT22;10195;50.868;4.382;2023-05-07T09:19:54;18.30;99.90
20070;DHT22;10195;50.868;4.382;2023-05-07T09:22:19;18.40;99.90
20070;DHT22;10195;50.868;4.382;2023-05-07T09:24:49;18.50;99.90
20070;DHT22;10195;50.868;4.382;2023-05-07T09:27:15;18.60;99.90
20070;DHT22;10195;50.868;4.382;2023-05-07T09:29:41;18.90;99.90
20070;DHT22;10195;50.868;4.382;2023-05-07T09:32:07;18.80;99.90
20070;DHT22;10195;50.868;4.382;2023-05-07T09:34:34;19.00;99.90
20070;DHT22;10195;50.868;4.382;2023-05-07T09:37:04;19.20;99.90
20070;DHT22;10195;50.868;4.382;2023-05-07T09:39:44;19.40;99.90
20070;DHT22;10195;50.868;4.382;2023-05-07T09:42:10;19.30;99.90
20070;DHT22;10195;50.868;4.382;2023-05-07T09:44:37;19.30;99.90
20070;DHT22;10195;50.868;4.382;2023-05-07T09:47:07;19.30;99.90
20070;DHT22;10195;50.868;4.382;2023-05-07T09:49:37;19.30;99.90
20070;DHT22;10195;50.868;4.382;2023-05-07T09:52:04;19.30;99.90
20070;DHT22;10195;50.868;4.382;2023-05-07T09:54:36;19.30;99.90
20070;DHT22;10195;50.868;4.382;2023-05-07T09:57:07;19.10;99.90
20070;DHT22;10195;50.868;4.382;2023-05-07T09:59:34;19.00;99.90
20070;DHT22;10195;50.868;4.382;2023-05-07T10:02:03;19.10;99.90
20070;DHT22;10195;50.868;4.382;2023-05-07T10:04:31;19.30;99.90
20070;DHT22;10195;50.868;4.382;2023-05-07T10:06:56;19.50;99.90
20070;DHT22;10195;50.868;4.382;2023-05-07T10:09:23;19.40;99.90
20070;DHT22;10195;50.868;4.382;2023-05-07T10:11:49;19.60;99.90
20070;DHT22;10195;50.868;4.382;2023-05-07T10:14:15;19.80;99.90
20070;DHT22;10195;50.868;4.382;2023-05-07T10:16:41;19.70;99.90
20070;DHT22;10195;50.868;4.382;2023-05-07T10:19:08;19.70;99.90
20070;DHT22;10195;50.868;4.382;2023-05-07T10:21:39;19.70;99.90
20070;DHT22;10195;50.868;4.382;2023-05-07T10:24:09;19.60;99.90
20070;DHT22;10195;50.868;4.382;2023-05-07T10:26:44;19.50;99.90
20070;DHT22;10195;50.868;4.382;2023-05-07T10:35:09;19.50;99.90
20070;DHT22;10195;50.868;4.382;2023-05-07T10:37:36;19.30;99.90
20070;DHT22;10195;50.868;4.382;2023-05-07T10:40:02;19.50;99.90
20070;DHT22;10195;50.868;4.382;2023-05-07T10:42:28;19.50;99.90
20070;DHT22;10195;50.868;4.382;2023-05-07T10:44:54;19.50;99.90
20070;DHT22;10195;50.868;4.382;2023-05-07T10:47:20;19.20;99.90
20070;DHT22;10195;50.868;4.382;2023-05-07T10:52:15;19.40;99.90
20070;DHT22;10195;50.868;4.382;2023-05-07T10:54:45;19.00;99.90
20070;DHT22;10195;50.868;4.382;2023-05-07T10:57:33;18.90;99.90
20070;DHT22;10195;50.868;4.382;2023-05-07T11:00:03;19.20;99.90
20070;DHT22;10195;50.868;4.382;2023-05-07T11:05:31;20.00;99.90
20070;DHT22;10195;50.868;4.382;2023-05-07T11:08:01;20.10;99.90
20070;DHT22;10195;50.868;4.382;2023-05-07T11:10:50;20.20;99.90
20070;DHT22;10195;50.868;4.382;2023-05-07T11:13:17;20.00;99.90
20070;DHT22;10195;50.868;4.382;2023-05-07T11:15:45;20.30;99.90
20070;DHT22;10195;50.868;4.382;2023-05-07T11:18:15;20.00;99.90
20070;DHT22;10195;50.868;4.382;2023-05-07T11:26:13;20.40;99.90
20070;DHT22;10195;50.868;4.382;2023-05-07T11:28:41;20.40;99.90
20070;DHT22;10195;50.868;4.382;2023-05-07T11:31:08;20.60;99.90
20070;DHT22;10195;50.868;4.382;2023-05-07T11:33:35;20.70;99.90
20070;DHT22;10195;50.868;4.382;2023-05-07T11:36:02;20.50;99.90
20070;DHT22;10195;50.868;4.382;2023-05-07T11:38:29;20.60;99.90
20070;DHT22;10195;50.868;4.382;2023-05-07T11:40:59;20.60;99.90
20070;DHT22;10195;50.868;4.382;2023-05-07T11:43:27;20.70;99.90
20070;DHT22;10195;50.868;4.382;2023-05-07T11:45:53;20.50;99.90
20070;DHT22;10195;50.868;4.382;2023-05-07T11:48:21;20.60;99.90
20070;DHT22;10195;50.868;4.382;2023-05-07T11:51:03;20.70;99.90
20070;DHT22;10195;50.868;4.382;2023-05-07T11:53:39;20.80;99.90
20070;DHT22;10195;50.868;4.382;2023-05-07T11:56:14;21.00;99.90
20070;DHT22;10195;50.868;4.382;2023-05-07T11:58:40;21.40;99.90
20070;DHT22;10195;50.868;4.382;2023-05-07T12:01:11;21.20;99.90
20070;DHT22;10195;50.868;4.382;2023-05-07T12:03:39;21.30;99.90
20070;DHT22;10195;50.868;4.382;2023-05-07T12:06:08;21.30;99.90
20070;DHT22;10195;50.868;4.382;2023-05-07T12:08:36;21.10;99.90
20070;DHT22;10195;50.868;4.382;2023-05-07T12:11:03;21.40;99.90
20070;DHT22;10195;50.868;4.382;2023-05-07T12:13:32;21.90;99.90
20070;DHT22;10195;50.868;4.382;2023-05-07T12:15:58;22.20;99.90
20070;DHT22;10195;50.868;4.382;2023-05-07T12:18:23;22.20;99.90
20070;DHT22;10195;50.868;4.382;2023-05-07T12:20:50;22.20;99.90
20070;DHT22;10195;50.868;4.382;2023-05-07T12:23:16;22.30;99.90
20070;DHT22;10195;50.868;4.382;2023-05-07T12:25:42;22.20;99.90
20070;DHT22;10195;50.868;4.382;2023-05-07T12:28:13;22.10;99.90
20070;DHT22;10195;50.868;4.382;2023-05-07T12:30:42;21.50;99.90
20070;DHT22;10195;50.868;4.382;2023-05-07T12:33:08;20.40;99.90
20070;DHT22;10195;50.868;4.382;2023-05-07T12:35:40;20.10;99.90
20070;DHT22;10195;50.868;4.382;2023-05-07T12:38:11;20.30;99.90
20070;DHT22;10195;50.868;4.382;2023-05-07T12:40:39;20.30;99.90
20070;DHT22;10195;50.868;4.382;2023-05-07T12:43:05;20.80;99.90
20070;DHT22;10195;50.868;4.382;2023-05-07T12:45:31;20.70;99.90
20070;DHT22;10195;50.868;4.382;2023-05-07T12:48:01;20.60;99.90
20070;DHT22;10195;50.868;4.382;2023-05-07T12:50:31;20.50;99.90
20070;DHT22;10195;50.868;4.382;2023-05-07T12:52:58;20.60;99.90
20070;DHT22;10195;50.868;4.382;2023-05-07T12:55:24;21.00;99.90
20070;DHT22;10195;50.868;4.382;2023-05-07T12:57:51;21.20;99.90
20070;DHT22;10195;50.868;4.382;2023-05-07T13:00:31;21.40;99.90
20070;DHT22;10195;50.868;4.382;2023-05-07T13:02:58;21.80;99.90
20070;DHT22;10195;50.868;4.382;2023-05-07T13:05:24;22.10;99.90
20070;DHT22;10195;50.868;4.382;2023-05-07T13:07:53;22.10;99.90
20070;DHT22;10195;50.868;4.382;2023-05-07T13:10:20;22.20;99.90
20070;DHT22;10195;50.868;4.382;2023-05-07T13:12:45;22.20;99.90
20070;DHT22;10195;50.868;4.382;2023-05-07T13:15:11;22.00;99.90
20070;DHT22;10195;50.868;4.382;2023-05-07T13:17:37;21.60;99.90
20070;DHT22;10195;50.868;4.382;2023-05-07T13:20:02;21.70;99.90
20070;DHT22;10195;50.868;4.382;2023-05-07T13:22:28;21.50;99.90
20070;DHT22;10195;50.868;4.382;2023-05-07T13:24:54;21.70;99.90
20070;DHT22;10195;50.868;4.382;2023-05-07T13:27:21;21.50;99.90
20070;DHT22;10195;50.868;4.382;2023-05-07T13:29:46;21.50;99.90
20070;DHT22;10195;50.868;4.382;2023-05-07T13:32:12;21.50;99.90
20070;DHT22;10195;50.868;4.382;2023-05-07T13:34:38;21.40;99.90
20070;DHT22;10195;50.868;4.382;2023-05-07T13:37:03;21.40;99.90
20070;DHT22;10195;50.868;4.382;2023-05-07T13:39:29;21.40;99.90
20070;DHT22;10195;50.868;4.382;2023-05-07T13:41:55;21.50;99.90
20070;DHT22;10195;50.868;4.382;2023-05-07T13:44:20;21.60;99.90
20070;DHT22;10195;50.868;4.382;2023-05-07T13:46:46;21.40;99.90
20070;DHT22;10195;50.868;4.382;2023-05-07T13:49:12;21.50;99.90
20070;DHT22;10195;50.868;4.382;2023-05-07T13:51:38;21.40;99.90
20070;DHT22;10195;50.868;4.382;2023-05-07T13:54:04;21.40;99.90
20070;DHT22;10195;50.868;4.382;2023-05-07T13:56:29;21.30;99.90
20070;DHT22;10195;50.868;4.382;2023-05-07T13:58:58;21.30;99.90
20070;DHT22;10195;50.868;4.382;2023-05-07T14:01:23;21.40;99.90
20070;DHT22;10195;50.868;4.382;2023-05-07T14:03:49;21.70;99.90
20070;DHT22;10195;50.868;4.382;2023-05-07T14:06:15;21.70;99.90
20070;DHT22;10195;50.868;4.382;2023-05-07T14:08:40;21.80;99.90
20070;DHT22;10195;50.868;4.382;2023-05-07T14:11:06;21.80;99.90
20070;DHT22;10195;50.868;4.382;2023-05-07T14:13:35;21.80;99.90
20070;DHT22;10195;50.868;4.382;2023-05-07T14:16:00;21.70;99.90
20070;DHT22;10195;50.868;4.382;2023-05-07T14:18:26;21.60;99.90
20070;DHT22;10195;50.868;4.382;2023-05-07T14:20:54;21.80;99.90
20070;DHT22;10195;50.868;4.382;2023-05-07T14:23:22;21.60;99.90
20070;DHT22;10195;50.868;4.382;2023-05-07T14:25:52;21.40;99.90
20070;DHT22;10195;50.868;4.382;2023-05-07T14:28:18;21.40;99.90
20070;DHT22;10195;50.868;4.382;2023-05-07T14:30:44;21.60;99.90
20070;DHT22;10195;50.868;4.382;2023-05-07T14:33:10;21.70;99.90
20070;DHT22;10195;50.868;4.382;2023-05-07T14:35:36;21.10;99.90
20070;DHT22;10195;50.868;4.382;2023-05-07T14:38:02;21.00;99.90
20070;DHT22;10195;50.868;4.382;2023-05-07T14:40:27;21.20;99.90
20070;DHT22;10195;50.868;4.382;2023-05-07T14:42:53;21.50;99.90
20070;DHT22;10195;50.868;4.382;2023-05-07T14:45:20;21.70;99.90
20070;DHT22;10195;50.868;4.382;2023-05-07T14:47:46;21.50;99.90
20070;DHT22;10195;50.868;4.382;2023-05-07T14:50:11;21.40;99.90
20070;DHT22;10195;50.868;4.382;2023-05-07T14:52:37;21.20;99.90
20070;DHT22;10195;50.868;4.382;2023-05-07T14:55:03;21.20;99.90
20070;DHT22;10195;50.868;4.382;2023-05-07T14:57:29;21.30;99.90
20070;DHT22;10195;50.868;4.382;2023-05-07T14:59:55;21.50;99.90
20070;DHT22;10195;50.868;4.382;2023-05-07T15:02:21;21.40;99.90
20070;DHT22;10195;50.868;4.382;2023-05-07T15:04:46;21.60;99.90
20070;DHT22;10195;50.868;4.382;2023-05-07T15:07:13;21.70;99.90
20070;DHT22;10195;50.868;4.382;2023-05-07T15:09:44;21.70;99.90
20070;DHT22;10195;50.868;4.382;2023-05-07T15:12:10;21.80;99.90
20070;DHT22;10195;50.868;4.382;2023-05-07T15:14:37;21.70;99.90
20070;DHT22;10195;50.868;4.382;2023-05-07T15:17:03;21.60;99.90
20070;DHT22;10195;50.868;4.382;2023-05-07T15:19:29;21.40;99.90
20070;DHT22;10195;50.868;4.382;2023-05-07T15:21:57;21.40;99.90
20070;DHT22;10195;50.868;4.382;2023-05-07T15:24:23;21.30;99.90
20070;DHT22;10195;50.868;4.382;2023-05-07T15:26:51;21.30;99.90
20070;DHT22;10195;50.868;4.382;2023-05-07T15:29:17;21.20;99.90
20070;DHT22;10195;50.868;4.382;2023-05-07T15:31:42;21.30;99.90
20070;DHT22;10195;50.868;4.382;2023-05-07T15:34:08;21.30;99.90
20070;DHT22;10195;50.868;4.382;2023-05-07T15:36:34;21.00;99.90
20070;DHT22;10195;50.868;4.382;2023-05-07T15:38:59;20.90;99.90
20070;DHT22;10195;50.868;4.382;2023-05-07T15:41:27;20.90;99.90
20070;DHT22;10195;50.868;4.382;2023-05-07T15:43:53;21.00;99.90